Time;durP1;ratioP1;P1;durP2;ratioP2;P2;SDS_P1;SDS_P2;PMS_P1;PMS_P2;Temp;Humidity;BMP_temperature;BMP_pressure;BME280_temperature;BME280_humidity;BME280_pressure;Samples;Min_cycle;Max_cycle;Signal;HPM_P1;HPM_P2
2024/04/14 00:03:15;;;;;;;2.20;0.80;;;;;;;;;;11139622;26;20018;-74
2024/04/14 00:08:23;;;;;;;3.05;0.90;;;;;;;;;;11184017;26;20047;-75
2024/04/14 00:13:28;;;;;;;2.10;1.00;;;;;;;;;;11183048;26;20007;-75
2024/04/14 00:18:33;;;;;;;1.50;0.82;;;;;;;;;;11178132;26;20026;-75
2024/04/14 00:23:42;;;;;;;2.75;1.30;;;;;;;;;;11181815;26;20014;-75
2024/04/14 00:28:48;;;;;;;1.63;1.00;;;;;;;;;;11183656;26;20023;-75
2024/04/14 00:33:54;;;;;;;1.67;1.05;;;;;;;;;;11181594;26;20008;-75
2024/04/14 00:39:01;;;;;;;4.20;1.20;;;;;;;;;;11165895;26;20035;-75
2024/04/14 00:44:07;;;;;;;1.65;0.90;;;;;;;;;;11192551;26;20026;-75
2024/04/14 00:49:12;;;;;;;1.23;0.90;;;;;;;;;;11186939;26;20018;-75
2024/04/14 00:54:21;;;;;;;5.22;1.10;;;;;;;;;;11181830;26;20015;-75
2024/04/14 00:59:26;;;;;;;3.75;1.25;;;;;;;;;;11179732;26;20018;-75
2024/04/14 01:04:32;;;;;;;1.35;0.95;;;;;;;;;;11179858;26;19999;-75
2024/04/14 01:09:40;;;;;;;2.70;1.20;;;;;;;;;;11188318;26;20018;-75
2024/04/14 01:14:45;;;;;;;2.15;1.20;;;;;;;;;;11190114;26;20285;-75
2024/04/14 01:19:50;;;;;;;1.40;0.95;;;;;;;;;;11186643;26;20263;-75
2024/04/14 01:25:06;;;;;;;1.88;0.95;;;;;;;;;;11167612;26;20008;-75
2024/04/14 01:30:11;;;;;;;2.47;1.23;;;;;;;;;;11187199;26;20015;-75
2024/04/14 01:35:17;;;;;;;4.13;1.25;;;;;;;;;;11184851;26;20007;-75
2024/04/14 01:40:24;;;;;;;1.77;0.90;;;;;;;;;;11153265;26;20007;-75
2024/04/14 01:45:29;;;;;;;2.50;1.10;;;;;;;;;;11179928;26;20014;-75
2024/04/14 01:50:34;;;;;;;1.20;0.93;;;;;;;;;;11176886;26;20459;-75
2024/04/14 01:55:45;;;;;;;1.77;1.10;;;;;;;;;;11141638;26;20022;-75
2024/04/14 02:00:50;;;;;;;1.50;1.05;;;;;;;;;;11181274;26;20473;-75
2024/04/14 02:05:59;;;;;;;1.27;0.80;;;;;;;;;;11167092;26;20019;-75
2024/04/14 02:11:08;;;;;;;2.10;1.50;;;;;;;;;;11168992;26;20007;-75
2024/04/14 02:16:13;;;;;;;3.53;1.52;;;;;;;;;;11185968;26;20011;-75
2024/04/14 02:21:18;;;;;;;3.45;1.50;;;;;;;;;;11181248;26;20023;-75
2024/04/14 02:26:26;;;;;;;1.80;1.20;;;;;;;;;;11184780;26;20017;-75
2024/04/14 02:31:31;;;;;;;1.90;1.35;;;;;;;;;;11186601;26;20007;-75
2024/04/14 02:36:36;;;;;;;2.50;1.30;;;;;;;;;;11179883;26;20040;-75
2024/04/14 02:41:44;;;;;;;1.23;1.13;;;;;;;;;;11185328;26;20008;-75
2024/04/14 02:46:49;;;;;;;3.05;1.40;;;;;;;;;;11156485;26;20008;-75
2024/04/14 02:51:54;;;;;;;3.25;1.23;;;;;;;;;;11188789;26;20356;-75
2024/04/14 02:57:02;;;;;;;2.03;1.25;;;;;;;;;;11162286;26;20008;-75
2024/04/14 03:02:07;;;;;;;1.98;1.38;;;;;;;;;;11187935;26;20012;-75
2024/04/14 03:07:12;;;;;;;2.37;1.30;;;;;;;;;;11183742;26;20018;-75
2024/04/14 03:12:20;;;;;;;2.63;1.52;;;;;;;;;;11152304;26;20027;-75
2024/04/14 03:17:26;;;;;;;2.30;1.10;;;;;;;;;;11178776;26;20461;-75
2024/04/14 03:22:31;;;;;;;3.67;1.73;;;;;;;;;;11186779;26;20023;-75
2024/04/14 03:27:38;;;;;;;1.30;1.00;;;;;;;;;;11182902;26;20432;-75
2024/04/14 03:32:43;;;;;;;2.88;1.25;;;;;;;;;;11143252;26;20012;-75
2024/04/14 03:37:49;;;;;;;1.27;0.82;;;;;;;;;;11180387;26;20026;-74
2024/04/14 03:42:57;;;;;;;0.70;0.70;;;;;;;;;;11177841;26;20445;-74
2024/04/14 03:48:02;;;;;;;1.05;0.77;;;;;;;;;;11189398;26;20019;-74
2024/04/14 03:53:07;;;;;;;1.02;0.70;;;;;;;;;;11174834;26;20011;-75
2024/04/14 03:58:15;;;;;;;1.97;0.70;;;;;;;;;;11180100;21;20330;-73
2024/04/14 04:03:22;;;;;;;0.52;0.47;;;;;;;;;;11211729;26;20435;-73
2024/04/14 04:08:27;;;;;;;1.27;0.57;;;;;;;;;;11164314;26;20007;-73
2024/04/14 04:13:35;;;;;;;1.30;0.60;;;;;;;;;;11208714;26;20034;-73
2024/04/14 04:18:40;;;;;;;0.50;0.50;;;;;;;;;;11210974;26;20018;-73
2024/04/14 04:23:46;;;;;;;1.83;0.90;;;;;;;;;;11209220;26;20022;-73
2024/04/14 04:28:54;;;;;;;0.65;0.65;;;;;;;;;;11188026;26;20023;-73
2024/04/14 04:33:59;;;;;;;6.97;6.20;;;;;;;;;;11198958;26;20023;-73
2024/04/14 04:39:06;;;;;;;10.67;8.30;;;;;;;;;;11199892;26;20018;-73
2024/04/14 04:44:14;;;;;;;6.95;4.88;;;;;;;;;;11205247;26;20026;-73
2024/04/14 04:49:19;;;;;;;6.93;3.38;;;;;;;;;;11201910;26;20007;-73
2024/04/14 04:54:24;;;;;;;12.70;7.00;;;;;;;;;;11165096;26;20018;-73
2024/04/14 04:59:31;;;;;;;7.78;4.78;;;;;;;;;;11170141;26;20031;-73
2024/04/14 05:04:36;;;;;;;4.00;2.35;;;;;;;;;;11194700;26;20003;-73
2024/04/14 05:09:41;;;;;;;2.53;1.58;;;;;;;;;;11196438;26;20011;-73
2024/04/14 05:14:49;;;;;;;1.20;1.00;;;;;;;;;;11194036;26;20338;-73
2024/04/14 05:19:54;;;;;;;1.45;0.98;;;;;;;;;;11168748;26;20007;-73
2024/04/14 05:24:59;;;;;;;1.17;0.90;;;;;;;;;;11201016;26;20026;-73
2024/04/14 05:30:09;;;;;;;2.53;1.27;;;;;;;;;;11194688;26;20003;-73
2024/04/14 05:35:14;;;;;;;1.85;0.90;;;;;;;;;;11199284;26;20030;-73
2024/04/14 05:40:19;;;;;;;2.13;0.80;;;;;;;;;;11197016;26;20003;-73
2024/04/14 05:45:28;;;;;;;0.95;0.88;;;;;;;;;;11213137;26;20006;-73
2024/04/14 05:50:33;;;;;;;1.38;0.73;;;;;;;;;;11204479;26;20026;-73
2024/04/14 05:55:38;;;;;;;1.20;0.80;;;;;;;;;;11203231;26;20814;-73
2024/04/14 06:00:46;;;;;;;2.22;1.00;;;;;;;;;;11197758;26;20371;-73
2024/04/14 06:05:51;;;;;;;1.20;0.90;;;;;;;;;;11188878;26;20463;-73
2024/04/14 06:10:58;;;;;;;1.30;0.60;;;;;;;;;;11194815;26;20007;-73
2024/04/14 06:16:07;;;;;;;1.02;0.80;;;;;;;;;;11176526;26;20015;-73
2024/04/14 06:21:12;;;;;;;2.38;1.70;;;;;;;;;;11183453;26;20124;-73
2024/04/14 06:26:17;;;;;;;2.55;2.15;;;;;;;;;;11197193;26;20007;-74
2024/04/14 06:31:25;;;;;;;2.65;1.88;;;;;;;;;;11205222;26;20014;-74
2024/04/14 06:36:30;;;;;;;1.90;1.27;;;;;;;;;;11209754;26;20573;-73
2024/04/14 06:41:35;;;;;;;1.27;1.10;;;;;;;;;;11200123;26;20007;-73
2024/04/14 06:46:43;;;;;;;2.95;1.25;;;;;;;;;;11216616;26;20007;-74
2024/04/14 06:51:48;;;;;;;1.08;0.70;;;;;;;;;;11191516;26;20794;-73
2024/04/14 06:56:53;;;;;;;0.90;0.70;;;;;;;;;;11186809;26;20027;-73
2024/04/14 07:02:01;;;;;;;2.40;1.08;;;;;;;;;;11184468;26;20725;-74
2024/04/14 07:07:06;;;;;;;2.08;0.90;;;;;;;;;;11196458;26;20007;-73
2024/04/14 07:12:11;;;;;;;2.10;1.30;;;;;;;;;;11206026;26;20117;-74
2024/04/14 07:17:19;;;;;;;1.85;0.90;;;;;;;;;;11199285;26;20023;-73
2024/04/14 07:22:24;;;;;;;2.55;1.08;;;;;;;;;;11189190;26;20011;-74
2024/04/14 07:27:29;;;;;;;1.25;0.50;;;;;;;;;;11188073;26;20015;-74
2024/04/14 07:32:37;;;;;;;3.55;1.50;;;;;;;;;;11207157;26;20012;-73
2024/04/14 07:37:42;;;;;;;1.77;1.00;;;;;;;;;;11215400;26;20344;-73
2024/04/14 07:42:48;;;;;;;2.47;0.90;;;;;;;;;;11188037;26;20774;-73
2024/04/14 07:47:55;;;;;;;2.53;1.17;;;;;;;;;;11206736;26;20249;-73
2024/04/14 07:53:00;;;;;;;4.60;1.02;;;;;;;;;;11206752;26;20089;-73
2024/04/14 07:58:05;;;;;;;2.45;1.25;;;;;;;;;;11194066;26;20026;-73
2024/04/14 08:03:13;;;;;;;2.92;1.02;;;;;;;;;;11200132;26;22059;-74
2024/04/14 08:08:18;;;;;;;1.42;0.90;;;;;;;;;;11198174;26;20054;-74
2024/04/14 08:13:23;;;;;;;1.70;0.90;;;;;;;;;;11205063;26;21192;-73
2024/04/14 08:18:31;;;;;;;1.67;0.90;;;;;;;;;;11207231;26;20007;-74
2024/04/14 08:23:36;;;;;;;1.77;0.88;;;;;;;;;;11209054;26;20008;-74
2024/04/14 08:28:41;;;;;;;1.50;0.90;;;;;;;;;;11196653;26;20025;-73
2024/04/14 08:33:48;;;;;;;1.08;0.80;;;;;;;;;;11187901;26;20023;-73
2024/04/14 08:38:53;;;;;;;1.50;0.82;;;;;;;;;;11216331;26;20046;-73
2024/04/14 08:43:59;;;;;;;1.92;0.77;;;;;;;;;;11219920;26;20019;-74
2024/04/14 08:49:07;;;;;;;;;;;;;;;;;;11209582;26;20344;-73
2024/04/14 08:54:12;;;;;;;1.80;0.73;;;;;;;;;;11178697;26;19932;-73
2024/04/14 08:59:19;;;;;;;1.63;1.10;;;;;;;;;;11173667;26;20026;-73
2024/04/14 09:04:27;;;;;;;2.15;1.05;;;;;;;;;;11192721;26;20011;-73
2024/04/14 09:09:32;;;;;;;2.10;1.00;;;;;;;;;;11191028;26;20011;-73
2024/04/14 09:14:37;;;;;;;1.52;0.80;;;;;;;;;;11197403;26;20017;-73
2024/04/14 09:19:45;;;;;;;1.70;1.00;;;;;;;;;;11201075;26;20010;-74
2024/04/14 09:24:50;;;;;;;1.67;0.80;;;;;;;;;;11196598;26;20007;-73
2024/04/14 09:29:56;;;;;;;1.37;0.70;;;;;;;;;;11204744;26;20004;-73
2024/04/14 09:35:04;;;;;;;2.63;0.90;;;;;;;;;;11216069;26;20025;-73
2024/04/14 09:40:11;;;;;;;4.43;0.80;;;;;;;;;;11211344;26;20367;-73
2024/04/14 09:45:17;;;;;;;1.48;0.60;;;;;;;;;;11198242;26;20365;-74
2024/04/14 09:50:25;;;;;;;1.38;0.80;;;;;;;;;;11200068;26;20034;-73
2024/04/14 09:55:30;;;;;;;2.25;1.10;;;;;;;;;;11179678;26;20085;-74
2024/04/14 10:00:37;;;;;;;1.23;0.80;;;;;;;;;;11183765;21;20027;-74
2024/04/14 10:05:45;;;;;;;6.15;1.55;;;;;;;;;;11136646;26;20004;-74
2024/04/14 10:10:55;;;;;;;3.25;1.00;;;;;;;;;;11052821;26;20048;-74
2024/04/14 10:16:01;;;;;;;2.90;1.10;;;;;;;;;;11085225;26;20111;-74
2024/04/14 10:21:09;;;;;;;2.78;1.20;;;;;;;;;;11018768;26;20020;-74
2024/04/14 10:26:17;;;;;;;2.88;0.98;;;;;;;;;;11132669;26;20026;-74
2024/04/14 10:31:29;;;;;;;2.15;1.30;;;;;;;;;;11193637;26;20546;-73
2024/04/14 10:36:39;;;;;;;1.52;0.80;;;;;;;;;;11190965;26;20011;-74
2024/04/14 10:41:44;;;;;;;2.42;1.13;;;;;;;;;;11179574;26;20008;-74
2024/04/14 10:46:49;;;;;;;2.67;1.23;;;;;;;;;;11185522;26;20008;-74
2024/04/14 10:51:57;;;;;;;1.73;0.90;;;;;;;;;;11199243;26;20705;-74
2024/04/14 10:57:03;;;;;;;2.63;0.85;;;;;;;;;;11198117;26;20022;-73
2024/04/14 11:02:08;;;;;;;1.42;0.60;;;;;;;;;;11180777;26;20012;-74
2024/04/14 11:07:15;;;;;;;1.45;0.80;;;;;;;;;;11183983;26;20506;-74
2024/04/14 11:12:21;;;;;;;1.98;0.82;;;;;;;;;;11205859;26;20341;-74
2024/04/14 11:17:26;;;;;;;0.82;0.65;;;;;;;;;;11196382;26;20018;-74
2024/04/14 11:22:34;;;;;;;1.43;0.73;;;;;;;;;;11205799;26;20007;-73
2024/04/14 11:27:39;;;;;;;3.15;0.90;;;;;;;;;;11178493;26;20417;-73
2024/04/14 11:32:44;;;;;;;1.83;0.85;;;;;;;;;;11190802;26;20003;-74
2024/04/14 11:37:54;;;;;;;6.53;1.17;;;;;;;;;;11203484;26;20066;-73
2024/04/14 11:42:59;;;;;;;4.07;0.85;;;;;;;;;;11198587;26;20042;-74
2024/04/14 11:48:04;;;;;;;0.93;0.50;;;;;;;;;;11201011;26;20007;-74
2024/04/14 11:53:12;;;;;;;1.75;0.88;;;;;;;;;;11194115;26;20561;-74
2024/04/14 11:58:20;;;;;;;2.55;0.63;;;;;;;;;;11185759;26;20011;-74
2024/04/14 12:03:25;;;;;;;2.15;0.60;;;;;;;;;;11203134;26;20011;-74
2024/04/14 12:08:32;;;;;;;3.13;0.80;;;;;;;;;;11196061;26;20068;-73
2024/04/14 12:13:37;;;;;;;0.85;0.43;;;;;;;;;;11182377;26;20349;-74
2024/04/14 12:18:43;;;;;;;2.40;0.80;;;;;;;;;;11193252;26;20026;-74
2024/04/14 12:23:51;;;;;;;2.22;1.25;;;;;;;;;;11193993;26;20008;-74
2024/04/14 12:28:57;;;;;;;3.88;1.55;;;;;;;;;;11197901;26;20460;-74
2024/04/14 12:34:02;;;;;;;1.38;0.73;;;;;;;;;;11202016;26;20018;-74
2024/04/14 12:39:09;;;;;;;1.70;0.60;;;;;;;;;;11199996;26;20110;-73
2024/04/14 12:44:16;;;;;;;1.48;0.70;;;;;;;;;;11194207;26;20747;-74
2024/04/14 12:49:26;;;;;;;3.17;0.85;;;;;;;;;;11198699;26;20022;-74
2024/04/14 12:54:33;;;;;;;2.40;0.90;;;;;;;;;;11193388;26;20004;-74
2024/04/14 12:59:39;;;;;;;0.95;0.55;;;;;;;;;;11190176;26;20028;-74
2024/04/14 13:04:45;;;;;;;2.28;0.60;;;;;;;;;;11197331;26;20007;-73
2024/04/14 13:09:53;;;;;;;2.10;0.88;;;;;;;;;;11200432;26;20011;-74
2024/04/14 13:14:58;;;;;;;1.48;0.70;;;;;;;;;;11194124;26;20010;-74
2024/04/14 13:20:03;;;;;;;2.27;0.80;;;;;;;;;;11199546;26;20367;-74
2024/04/14 13:25:13;;;;;;;2.13;0.68;;;;;;;;;;11189479;26;20293;-74
2024/04/14 13:30:18;;;;;;;1.70;0.68;;;;;;;;;;11202907;26;20008;-74
2024/04/14 13:35:23;;;;;;;2.80;1.08;;;;;;;;;;11211353;26;20007;-74
2024/04/14 13:40:31;;;;;;;2.70;0.98;;;;;;;;;;11208408;26;20019;-74
2024/04/14 13:45:37;;;;;;;2.58;0.85;;;;;;;;;;11203182;26;20006;-74
2024/04/14 13:50:43;;;;;;;2.15;0.80;;;;;;;;;;11215236;26;20062;-74
2024/04/14 13:55:51;;;;;;;1.50;0.90;;;;;;;;;;11203090;26;20003;-73
2024/04/14 14:00:56;;;;;;;2.08;1.05;;;;;;;;;;11204855;26;20460;-74
2024/04/14 14:06:02;;;;;;;2.03;0.77;;;;;;;;;;11180557;26;20051;-74
2024/04/14 14:11:09;;;;;;;2.72;1.20;;;;;;;;;;11185555;26;20007;-74
2024/04/14 14:16:15;;;;;;;2.70;1.10;;;;;;;;;;11195151;26;20022;-74
2024/04/14 14:21:21;;;;;;;1.90;0.93;;;;;;;;;;11190971;26;20281;-73
2024/04/14 14:26:28;;;;;;;3.15;0.77;;;;;;;;;;11197932;26;20018;-74
2024/04/14 14:31:33;;;;;;;3.20;1.30;;;;;;;;;;11187697;26;20022;-74
2024/04/14 14:36:39;;;;;;;3.22;1.15;;;;;;;;;;11185748;26;20019;-74
2024/04/14 14:41:47;;;;;;;3.10;1.35;;;;;;;;;;11186723;26;20011;-73
2024/04/14 14:46:52;;;;;;;3.20;1.20;;;;;;;;;;11195545;26;20018;-74
2024/04/14 14:51:59;;;;;;;1.85;0.90;;;;;;;;;;11204119;26;20047;-73
2024/04/14 14:57:07;;;;;;;1.98;1.05;;;;;;;;;;11204593;26;20011;-74
2024/04/14 15:02:12;;;;;;;3.33;1.05;;;;;;;;;;11187515;26;20015;-74
2024/04/14 15:07:17;;;;;;;3.28;0.95;;;;;;;;;;11187113;26;20026;-73
2024/04/14 15:12:25;;;;;;;2.38;1.10;;;;;;;;;;11190614;26;20023;-74
2024/04/14 15:17:30;;;;;;;4.30;1.40;;;;;;;;;;11196316;26;20018;-74
2024/04/14 15:22:35;;;;;;;2.47;1.10;;;;;;;;;;11216853;26;20022;-74
2024/04/14 15:27:43;;;;;;;;;;;;;;;;;;11203709;26;20012;-74
2024/04/14 15:32:49;;;;;;;1.48;0.90;;;;;;;;;;11206422;26;19932;-74
2024/04/14 15:37:55;;;;;;;2.10;1.20;;;;;;;;;;11214040;26;20002;-74
2024/04/14 15:43:03;;;;;;;3.58;1.48;;;;;;;;;;11173637;26;20002;-74
2024/04/14 15:48:08;;;;;;;2.50;1.17;;;;;;;;;;11196145;26;20026;-73
2024/04/14 15:53:13;;;;;;;3.35;1.20;;;;;;;;;;11210646;26;20011;-74
2024/04/14 16:51:22;;;;;;;;;;;;;;;;;;;;;
2024/04/14 18:17:12;;;;;;;1.75;0.88;;;;;;;;;;11035654;26;20078;-73
2024/04/14 18:22:17;;;;;;;1.30;0.90;;;;;;;;;;11030856;26;20012;-74
2024/04/14 18:27:22;;;;;;;1.77;0.60;;;;;;;;;;11048353;26;20457;-74
2024/04/14 18:32:31;;;;;;;2.27;0.80;;;;;;;;;;11037379;26;20021;-74
2024/04/14 18:37:36;;;;;;;1.35;0.70;;;;;;;;;;11048649;26;20458;-74
2024/04/14 18:42:41;;;;;;;5.72;1.20;;;;;;;;;;11045017;26;20027;-73
2024/04/14 18:47:49;;;;;;;0.83;0.70;;;;;;;;;;11044598;26;20028;-74
2024/04/14 18:52:54;;;;;;;1.38;0.60;;;;;;;;;;11037170;26;20065;-73
2024/04/14 18:57:59;;;;;;;2.15;0.85;;;;;;;;;;11036689;26;20008;-74
2024/04/14 19:03:07;;;;;;;1.65;0.73;;;;;;;;;;11044671;26;20499;-73
2024/04/14 19:08:12;;;;;;;1.77;1.20;;;;;;;;;;11041647;26;20866;-73
2024/04/14 19:13:17;;;;;;;1.55;0.80;;;;;;;;;;11033860;26;20012;-74
2024/04/14 19:18:25;;;;;;;2.00;0.90;;;;;;;;;;11019963;26;20023;-74
2024/04/14 19:23:30;;;;;;;1.27;0.90;;;;;;;;;;11039614;26;20009;-74
2024/04/14 19:28:35;;;;;;;2.45;1.02;;;;;;;;;;11038752;26;20555;-74
2024/04/14 19:33:43;;;;;;;2.88;0.75;;;;;;;;;;11049844;26;20027;-74
2024/04/14 19:38:48;;;;;;;3.10;0.90;;;;;;;;;;11040484;26;20024;-74
2024/04/14 19:43:53;;;;;;;1.85;1.00;;;;;;;;;;11042688;26;20021;-74
2024/04/14 19:49:00;;;;;;;1.83;1.05;;;;;;;;;;11019955;26;20016;-74
2024/04/14 19:54:06;;;;;;;1.48;0.98;;;;;;;;;;11045699;26;20013;-74
2024/04/14 19:59:11;;;;;;;2.53;0.90;;;;;;;;;;11046084;26;20013;-74
2024/04/14 20:04:19;;;;;;;3.47;1.13;;;;;;;;;;11041689;26;20023;-74
2024/04/14 20:09:24;;;;;;;4.00;1.40;;;;;;;;;;11046125;26;20032;-74
2024/04/14 20:14:29;;;;;;;2.50;1.20;;;;;;;;;;11054245;26;20016;-74
2024/04/14 20:19:37;;;;;;;1.75;1.00;;;;;;;;;;11055588;26;20009;-74
2024/04/14 20:24:42;;;;;;;1.95;1.10;;;;;;;;;;11051540;26;20013;-74
2024/04/14 20:29:47;;;;;;;1.90;1.02;;;;;;;;;;11044388;26;20027;-74
2024/04/14 20:34:55;;;;;;;1.48;1.10;;;;;;;;;;11016339;26;20010;-74
2024/04/14 20:40:00;;;;;;;3.33;1.50;;;;;;;;;;11052448;26;20024;-73
2024/04/14 20:45:05;;;;;;;3.45;1.40;;;;;;;;;;11047376;26;20371;-73
2024/04/14 20:50:13;;;;;;;3.70;1.52;;;;;;;;;;11049570;26;20062;-73
2024/04/14 20:55:18;;;;;;;2.78;1.25;;;;;;;;;;11013664;26;20032;-73
2024/04/14 21:00:23;;;;;;;1.52;1.00;;;;;;;;;;11045508;26;20019;-73
2024/04/14 21:05:31;;;;;;;2.88;1.38;;;;;;;;;;11020491;26;20020;-74
2024/04/14 21:10:36;;;;;;;4.13;1.50;;;;;;;;;;11034041;26;20020;-73
2024/04/14 21:15:41;;;;;;;3.05;1.30;;;;;;;;;;11010830;26;20355;-74
2024/04/14 21:20:55;;;;;;;2.77;1.40;;;;;;;;;;11035498;26;20035;-74
2024/04/14 21:26:04;;;;;;;2.17;1.02;;;;;;;;;;11025452;26;20009;-74
2024/04/14 21:31:09;;;;;;;2.42;1.35;;;;;;;;;;11042015;26;20009;-74
2024/04/14 21:36:17;;;;;;;3.22;1.35;;;;;;;;;;11011062;26;20250;-75
2024/04/14 21:41:23;;;;;;;3.90;1.40;;;;;;;;;;11006815;26;20382;-74
2024/04/14 21:46:28;;;;;;;;;;;;;;;;;;11061957;26;20028;-74
2024/04/14 21:51:36;;;;;;;2.15;1.20;;;;;;;;;;11010213;26;19926;-74
2024/04/14 21:56:41;;;;;;;1.70;1.05;;;;;;;;;;11070406;21;20009;-76
2024/04/14 22:01:48;;;;;;;1.92;1.30;;;;;;;;;;11099882;26;20437;-74
2024/04/14 22:06:56;;;;;;;2.90;1.20;;;;;;;;;;11115503;26;20024;-73
2024/04/14 22:12:01;;;;;;;2.38;1.20;;;;;;;;;;11097220;26;20019;-74
2024/04/14 22:17:07;;;;;;;4.32;1.80;;;;;;;;;;11076530;26;20015;-74
2024/04/14 22:22:14;;;;;;;5.30;1.50;;;;;;;;;;11088761;26;20395;-74
2024/04/14 22:27:19;;;;;;;3.00;1.40;;;;;;;;;;11064631;26;20086;-74
2024/04/14 22:32:24;;;;;;;2.38;1.45;;;;;;;;;;11105564;26;20012;-73
2024/04/14 22:37:32;;;;;;;2.05;1.30;;;;;;;;;;11099224;26;20023;-74
2024/04/14 22:42:37;;;;;;;1.55;1.40;;;;;;;;;;11090215;26;20009;-73
2024/04/14 22:47:42;;;;;;;2.72;1.20;;;;;;;;;;11053562;26;20023;-73
2024/04/14 22:52:50;;;;;;;2.65;1.40;;;;;;;;;;11103658;26;20099;-73
2024/04/14 22:57:55;;;;;;;2.40;1.10;;;;;;;;;;11093611;26;20475;-73
2024/04/14 23:03:00;;;;;;;2.33;1.23;;;;;;;;;;11107279;26;20373;-73
2024/04/14 23:08:08;;;;;;;1.83;1.27;;;;;;;;;;11109324;26;20013;-73
2024/04/14 23:13:13;;;;;;;2.60;1.33;;;;;;;;;;11107393;26;20051;-73
2024/04/14 23:18:18;;;;;;;3.60;1.35;;;;;;;;;;11110445;26;20004;-73
2024/04/14 23:23:26;;;;;;;1.98;1.15;;;;;;;;;;11119068;26;20012;-73
2024/04/14 23:28:31;;;;;;;1.73;1.40;;;;;;;;;;11113038;26;20012;-73
2024/04/14 23:33:36;;;;;;;1.35;1.20;;;;;;;;;;11085640;26;20027;-73
2024/04/14 23:38:44;;;;;;;1.85;1.10;;;;;;;;;;11083115;26;20077;-73
2024/04/14 23:43:49;;;;;;;2.08;1.25;;;;;;;;;;11105353;26;20008;-73
2024/04/14 23:48:54;;;;;;;2.55;1.23;;;;;;;;;;11103768;26;20400;-73
2024/04/14 23:54:01;;;;;;;2.80;1.50;;;;;;;;;;11108868;26;20022;-73
2024/04/14 23:59:06;;;;;;;2.17;1.38;;;;;;;;;;11116500;26;20026;-73
